createdAt,value
2022-12-19T00:01:37.247Z,27.63
2022-12-19T00:04:08.009Z,22.67
2022-12-19T00:06:36.540Z,23.23
2022-12-19T00:09:04.016Z,20.77
2022-12-19T00:11:32.094Z,22.25
2022-12-19T00:14:00.045Z,32.72
2022-12-19T00:16:29.550Z,31.80
2022-12-19T00:18:59.042Z,32.13
2022-12-19T00:21:28.826Z,42.22
2022-12-19T00:23:56.100Z,36.25
2022-12-19T00:26:25.990Z,65.30
2022-12-19T00:28:57.248Z,68.75
2022-12-19T00:31:26.644Z,65.32
2022-12-19T00:33:53.678Z,46.08
2022-12-19T00:36:23.275Z,40.60
2022-12-19T00:38:52.276Z,42.13
2022-12-19T00:41:25.700Z,25.23
2022-12-19T00:43:57.957Z,47.45
2022-12-19T00:46:25.833Z,35.88
2022-12-19T00:48:52.778Z,24.38
2022-12-19T00:51:22.499Z,26.33
2022-12-19T00:53:51.078Z,21.65
2022-12-19T00:56:20.766Z,22.80
2022-12-19T00:58:48.273Z,22.20
2022-12-19T01:01:19.528Z,22.48
2022-12-19T01:04:18.629Z,24.98
2022-12-19T01:06:34.732Z,24.40
2022-12-19T01:09:02.041Z,23.35
2022-12-19T01:11:47.506Z,21.75
2022-12-19T01:14:22.295Z,20.90
2022-12-19T01:16:50.791Z,23.40
2022-12-19T01:19:19.378Z,21.33
2022-12-19T01:21:46.416Z,19.67
2022-12-19T01:24:13.788Z,25.73
2022-12-19T01:26:45.355Z,36.42
2022-12-19T01:29:12.411Z,21.80
2022-12-19T01:31:39.688Z,26.30
2022-12-19T01:34:06.831Z,20.80
2022-12-19T01:36:39.648Z,21.50
2022-12-19T01:39:07.280Z,17.95
2022-12-19T01:41:34.567Z,22.55
2022-12-19T01:44:05.954Z,20.33
2022-12-19T01:46:48.880Z,22.60
2022-12-19T01:49:25.315Z,21.60
2022-12-19T01:51:55.390Z,21.23
2022-12-19T01:54:28.931Z,21.70
2022-12-19T01:56:58.839Z,27.50
2022-12-19T01:59:41.797Z,22.80
2022-12-19T02:02:19.151Z,20.98
2022-12-19T02:04:46.282Z,22.35
2022-12-19T02:07:16.637Z,20.95
2022-12-19T02:09:51.922Z,23.08
2022-12-19T02:12:26.714Z,21.08
2022-12-19T02:14:56.022Z,19.10
2022-12-19T02:17:55.213Z,19.45
2022-12-19T02:21:12.718Z,23.23
2022-12-19T02:24:16.410Z,21.83
2022-12-19T02:27:35.916Z,24.15
2022-12-19T02:30:18.218Z,23.73
2022-12-19T02:33:01.474Z,27.02
2022-12-19T02:38:30.610Z,24.20
2022-12-19T02:41:13.304Z,25.63
2022-12-19T02:43:44.930Z,25.38
2022-12-19T02:46:15.359Z,24.48
2022-12-19T02:48:43.439Z,29.90
2022-12-19T02:51:10.456Z,30.63
2022-12-19T02:53:39.325Z,30.67
2022-12-19T02:56:31.369Z,31.55
2022-12-19T02:58:58.328Z,29.90
2022-12-19T03:01:47.722Z,29.92
2022-12-19T03:04:39.775Z,24.08
2022-12-19T03:07:39.000Z,23.55
2022-12-19T03:10:37.836Z,23.75
2022-12-19T03:13:45.903Z,25.52
2022-12-19T03:16:13.401Z,25.23
2022-12-19T03:18:40.480Z,24.60
2022-12-19T03:21:07.452Z,23.67
2022-12-19T03:23:34.627Z,44.38
2022-12-19T03:26:12.472Z,21.80
2022-12-19T03:29:15.257Z,26.73
2022-12-19T03:31:44.992Z,24.42
2022-12-19T03:34:19.137Z,24.15
2022-12-19T03:36:55.159Z,29.05
2022-12-19T03:39:25.146Z,25.17
2022-12-19T03:42:12.127Z,28.95
2022-12-19T03:44:42.555Z,26.52
2022-12-19T03:47:22.393Z,23.75
2022-12-19T03:49:50.122Z,24.25
2022-12-19T03:52:35.333Z,25.42
2022-12-19T03:55:18.130Z,32.63
2022-12-19T03:57:57.171Z,26.90
2022-12-19T04:00:25.380Z,26.52
2022-12-19T04:02:55.838Z,22.58
2022-12-19T04:05:26.142Z,27.67
2022-12-19T04:07:56.844Z,28.10
2022-12-19T04:10:27.323Z,27.85
2022-12-19T04:13:04.678Z,27.30
2022-12-19T04:15:47.806Z,25.35
2022-12-19T04:18:17.031Z,32.03
2022-12-19T04:20:55.310Z,33.42
2022-12-19T04:23:28.692Z,29.73
2022-12-19T04:26:00.035Z,30.20
2022-12-19T04:28:40.976Z,34.25
2022-12-19T04:31:11.297Z,32.40
2022-12-19T04:33:38.286Z,33.10
2022-12-19T04:36:05.499Z,27.38
2022-12-19T04:38:32.579Z,27.77
2022-12-19T04:40:59.540Z,37.03
2022-12-19T04:43:26.465Z,34.97
2022-12-19T04:45:57.276Z,33.85
2022-12-19T04:48:24.931Z,34.28
2022-12-19T04:50:51.936Z,35.53
2022-12-19T04:53:18.924Z,39.88
2022-12-19T04:55:45.861Z,33.85
2022-12-19T04:58:16.313Z,33.10
2022-12-19T05:00:46.042Z,26.02
2022-12-19T05:03:12.975Z,32.15
2022-12-19T05:05:40.411Z,32.72
2022-12-19T05:08:07.832Z,32.55
2022-12-19T05:10:36.679Z,31.70
2022-12-19T05:13:03.650Z,30.88
2022-12-19T05:15:30.630Z,31.05
2022-12-19T05:17:58.109Z,30.42
2022-12-19T05:20:25.009Z,27.10
2022-12-19T05:22:51.947Z,34.00
2022-12-19T05:25:18.861Z,32.67
2022-12-19T05:27:45.775Z,30.50
2022-12-19T05:30:13.052Z,29.75
2022-12-19T05:32:39.992Z,31.42
2022-12-19T05:35:07.303Z,34.22
2022-12-19T05:37:35.410Z,31.25
2022-12-19T05:40:02.550Z,32.13
2022-12-19T05:42:29.545Z,29.08
2022-12-19T05:44:56.439Z,29.70
2022-12-19T05:47:23.391Z,32.13
2022-12-19T05:49:50.335Z,32.28
2022-12-19T05:52:17.209Z,33.67
2022-12-19T05:54:44.982Z,43.35
2022-12-19T05:57:12.029Z,44.20
2022-12-19T05:59:38.907Z,41.78
2022-12-19T06:02:09.672Z,43.40
2022-12-19T06:04:37.039Z,46.67
2022-12-19T06:07:04.385Z,47.00
2022-12-19T06:09:31.369Z,46.10
2022-12-19T06:11:58.531Z,50.38
2022-12-19T06:14:25.473Z,48.35
2022-12-19T06:16:52.519Z,50.70
2022-12-19T06:19:20.699Z,47.78
2022-12-19T06:21:48.712Z,132.20
2022-12-19T06:24:15.999Z,129.18
2022-12-19T06:26:43.258Z,103.30
2022-12-19T06:29:10.493Z,120.38
2022-12-19T06:31:37.425Z,120.32
2022-12-19T06:34:04.351Z,209.68
2022-12-19T06:36:31.522Z,120.93
2022-12-19T06:38:58.943Z,114.70
2022-12-19T06:41:44.756Z,253.38
2022-12-19T06:44:13.801Z,210.45
2022-12-19T06:46:41.860Z,341.48
2022-12-19T06:49:10.084Z,203.70
2022-12-19T06:51:37.236Z,285.42
2022-12-19T06:54:04.360Z,191.30
2022-12-19T06:56:36.318Z,169.40
2022-12-19T06:59:03.610Z,203.73
2022-12-19T07:01:52.660Z,64.65
2022-12-19T07:04:26.651Z,140.85
2022-12-19T07:06:54.056Z,153.70
2022-12-19T07:09:21.630Z,78.75
2022-12-19T07:11:48.558Z,53.78
2022-12-19T07:14:15.480Z,55.33
2022-12-19T07:16:42.634Z,52.13
2022-12-19T07:19:10.012Z,70.22
2022-12-19T07:21:38.699Z,65.40
2022-12-19T07:24:07.503Z,106.35
2022-12-19T07:26:35.882Z,95.28
2022-12-19T07:29:03.363Z,83.05
2022-12-19T07:31:30.438Z,45.55
2022-12-19T07:33:58.063Z,48.50
2022-12-19T07:36:25.395Z,43.90
2022-12-19T07:38:52.320Z,38.65
2022-12-19T07:41:19.355Z,43.90
2022-12-19T07:43:47.287Z,40.25
2022-12-19T07:46:14.656Z,42.25
2022-12-19T07:48:42.053Z,38.50
2022-12-19T07:51:09.170Z,39.30
2022-12-19T07:53:36.204Z,40.05
2022-12-19T07:56:03.159Z,36.80
2022-12-19T07:58:30.889Z,39.60
2022-12-19T08:01:00.784Z,46.45
2022-12-19T08:03:32.074Z,45.95
2022-12-19T08:06:04.709Z,44.30
2022-12-19T08:08:32.459Z,41.92
2022-12-19T08:11:16.924Z,41.75
2022-12-19T08:13:47.007Z,47.75
2022-12-19T08:16:15.191Z,51.60
2022-12-19T08:18:42.237Z,52.92
2022-12-19T08:21:10.386Z,45.33
2022-12-19T08:23:38.847Z,49.85
2022-12-19T08:26:21.852Z,53.60
2022-12-19T08:28:48.793Z,43.95
2022-12-19T08:31:17.993Z,49.90
2022-12-19T08:33:45.672Z,50.25
2022-12-19T08:36:16.927Z,40.97
2022-12-19T08:38:43.889Z,50.63
2022-12-19T08:41:11.571Z,50.13
2022-12-19T08:43:39.213Z,48.35
2022-12-19T08:46:07.046Z,48.83
2022-12-19T08:48:35.375Z,51.63
2022-12-19T08:51:06.003Z,38.55
2022-12-19T08:53:35.689Z,42.75
2022-12-19T08:56:09.313Z,46.17
2022-12-19T08:58:36.259Z,44.67
2022-12-19T09:01:06.095Z,43.10
2022-12-19T09:03:49.632Z,41.92
2022-12-19T09:06:21.010Z,48.30
2022-12-19T09:08:48.042Z,49.55
2022-12-19T09:11:18.041Z,57.33
2022-12-19T09:13:45.522Z,49.47
2022-12-19T09:16:12.479Z,58.22
2022-12-19T09:18:45.171Z,51.42
2022-12-19T09:21:15.286Z,55.17
2022-12-19T09:23:43.220Z,59.22
2022-12-19T09:26:14.040Z,53.42
2022-12-19T09:28:41.997Z,56.05
2022-12-19T09:31:18.021Z,59.63
2022-12-19T09:33:45.410Z,64.18
2022-12-19T09:36:17.951Z,64.80
2022-12-19T09:38:46.013Z,61.28
2022-12-19T09:41:41.092Z,52.42
2022-12-19T09:44:29.102Z,53.67
2022-12-19T09:47:05.326Z,58.13
2022-12-19T09:49:41.918Z,45.22
2022-12-19T09:52:31.560Z,53.65
2022-12-19T09:55:18.833Z,49.17
2022-12-19T09:58:08.365Z,48.17
2022-12-19T10:00:49.369Z,46.17
2022-12-19T10:03:40.441Z,46.60
2022-12-19T10:07:15.825Z,42.60
2022-12-19T10:10:11.750Z,49.20
2022-12-19T10:12:46.000Z,44.22
2022-12-19T10:14:52.319Z,42.25
2022-12-19T10:17:26.283Z,48.92
2022-12-19T10:19:53.165Z,39.67
2022-12-19T10:22:20.064Z,44.72
2022-12-19T10:25:09.240Z,41.72
2022-12-19T10:28:02.109Z,44.45
2022-12-19T10:30:33.463Z,44.00
2022-12-19T10:33:05.184Z,41.25
2022-12-19T10:35:49.289Z,39.08
2022-12-19T10:40:52.017Z,43.00
2022-12-19T10:44:13.510Z,41.75
2022-12-19T10:46:46.257Z,38.28
2022-12-19T10:49:18.022Z,45.97
2022-12-19T10:52:03.782Z,36.58
2022-12-19T10:54:43.564Z,38.35
2022-12-19T10:57:22.785Z,39.13
2022-12-19T11:00:15.511Z,37.17
2022-12-19T11:02:48.744Z,38.03
2022-12-19T11:05:27.998Z,37.05
2022-12-19T11:08:15.654Z,37.10
2022-12-19T11:11:55.028Z,38.47
2022-12-19T11:19:02.506Z,38.63
2022-12-19T11:22:40.074Z,42.45
2022-12-19T11:29:30.654Z,42.28
2022-12-19T11:29:31.604Z,42.08
2022-12-19T11:29:42.130Z,47.92
2022-12-19T11:29:43.951Z,40.67
2022-12-19T11:34:18.872Z,45.63
2022-12-19T11:36:52.521Z,44.20
2022-12-19T11:39:25.767Z,39.53
2022-12-19T11:42:21.195Z,40.90
2022-12-19T11:44:50.005Z,44.72
2022-12-19T11:47:32.567Z,44.58
2022-12-19T11:50:15.536Z,46.83
2022-12-19T11:53:11.371Z,46.50
2022-12-19T11:55:45.463Z,49.75
2022-12-19T11:58:13.507Z,51.10
2022-12-19T12:00:55.873Z,52.70
2022-12-19T12:03:29.240Z,44.08
2022-12-19T12:05:58.487Z,45.10
2022-12-19T12:10:07.729Z,46.65
2022-12-19T12:18:31.608Z,49.95
2022-12-19T12:28:20.914Z,49.20
2022-12-19T12:31:08.955Z,50.75
2022-12-19T12:31:32.346Z,54.63
2022-12-19T12:31:45.128Z,55.10
2022-12-19T12:31:50.788Z,50.65
2022-12-19T12:32:04.670Z,53.72
2022-12-19T12:35:50.039Z,54.65
2022-12-19T12:39:05.504Z,46.90
2022-12-19T12:42:03.766Z,46.50
2022-12-19T12:44:42.898Z,52.08
2022-12-19T12:47:17.996Z,52.95
2022-12-19T12:49:47.994Z,46.45
2022-12-19T12:52:20.256Z,46.67
2022-12-19T12:54:49.457Z,49.28
2022-12-19T12:57:27.674Z,49.90
2022-12-19T13:00:22.512Z,52.90
2022-12-19T13:03:16.793Z,49.97
2022-12-19T13:08:40.062Z,55.80
2022-12-19T13:11:39.385Z,56.97
2022-12-19T13:14:35.489Z,60.50
2022-12-19T13:17:17.701Z,59.42
2022-12-19T13:19:57.477Z,61.85
2022-12-19T13:22:58.882Z,62.63
2022-12-19T13:25:34.636Z,59.42
2022-12-19T13:28:01.574Z,60.90
2022-12-19T13:30:30.380Z,61.40
2022-12-19T13:33:00.005Z,59.28
2022-12-19T13:38:40.496Z,59.90
2022-12-19T13:39:54.031Z,63.00
2022-12-19T13:41:47.975Z,62.78
2022-12-19T13:44:20.240Z,60.92
2022-12-19T13:46:47.371Z,60.95
2022-12-19T13:49:30.516Z,65.72
2022-12-19T13:52:02.561Z,55.53
2022-12-19T13:54:50.810Z,63.88
2022-12-19T13:57:31.402Z,58.85
2022-12-19T14:00:02.090Z,55.58
2022-12-19T14:02:45.250Z,58.60
2022-12-19T14:05:34.176Z,58.88
2022-12-19T14:08:16.555Z,58.05
2022-12-19T14:11:44.113Z,56.33
2022-12-19T14:14:08.082Z,56.80
2022-12-19T14:16:44.870Z,55.08
2022-12-19T14:19:30.895Z,59.50
2022-12-19T14:22:20.778Z,64.65
2022-12-19T14:25:44.182Z,56.85
2022-12-19T14:28:18.320Z,55.75
2022-12-19T14:30:43.573Z,59.22
2022-12-19T14:33:45.853Z,58.17
2022-12-19T14:36:14.623Z,63.55
2022-12-19T14:39:25.134Z,63.08
2022-12-19T14:42:01.882Z,57.90
2022-12-19T14:52:34.220Z,60.95
2022-12-19T14:54:16.485Z,61.78
2022-12-19T14:54:24.008Z,67.53
2022-12-19T14:54:41.627Z,58.22
2022-12-19T14:59:02.781Z,62.03
2022-12-19T15:01:33.178Z,68.80
2022-12-19T15:04:51.395Z,67.75
2022-12-19T15:07:07.121Z,64.15
2022-12-19T15:11:09.161Z,67.82
2022-12-19T15:14:51.620Z,72.95
2022-12-19T15:16:23.804Z,78.60
2022-12-19T15:18:58.491Z,51.28
2022-12-19T15:21:26.940Z,73.80
2022-12-19T15:23:53.991Z,61.97
2022-12-19T15:26:32.646Z,69.60
2022-12-19T15:29:00.229Z,68.13
2022-12-19T15:31:30.198Z,74.78
2022-12-19T15:34:33.063Z,66.43
2022-12-19T15:36:44.495Z,75.60
2022-12-19T15:39:11.451Z,71.28
2022-12-19T15:41:38.385Z,67.07
2022-12-19T15:44:28.555Z,71.35
2022-12-19T15:46:56.059Z,75.05
2022-12-19T15:49:23.600Z,73.65
2022-12-19T15:51:51.171Z,75.43
2022-12-19T15:57:05.484Z,72.20
2022-12-19T15:59:37.197Z,73.57
2022-12-19T16:02:18.577Z,68.40
2022-12-19T16:04:47.724Z,77.82
2022-12-19T16:07:20.517Z,76.38
2022-12-19T16:09:48.489Z,65.70
2022-12-19T16:12:27.560Z,67.47
2022-12-19T16:14:59.655Z,74.55
2022-12-19T16:17:28.915Z,80.45
2022-12-19T16:19:55.933Z,124.30
2022-12-19T16:22:28.728Z,81.18
2022-12-19T16:24:56.111Z,74.17
2022-12-19T16:27:31.031Z,74.82
2022-12-19T16:30:16.599Z,69.35
2022-12-19T16:32:45.586Z,72.80
2022-12-19T16:35:20.329Z,74.75
2022-12-19T16:37:51.401Z,81.15
2022-12-19T16:40:25.738Z,84.20
2022-12-19T16:43:04.404Z,83.68
2022-12-19T16:45:33.267Z,83.07
2022-12-19T16:48:00.319Z,75.32
2022-12-19T16:50:30.902Z,75.28
2022-12-19T16:52:58.075Z,72.95
2022-12-19T16:55:25.997Z,74.88
2022-12-19T16:57:55.991Z,80.72
2022-12-19T17:00:23.689Z,80.40
2022-12-19T17:02:57.269Z,73.40
2022-12-19T17:07:59.643Z,74.72
2022-12-19T17:10:32.222Z,72.85
2022-12-19T17:13:01.851Z,82.13
2022-12-19T17:15:30.283Z,78.13
2022-12-19T17:17:59.556Z,89.10
2022-12-19T17:20:30.945Z,94.03
2022-12-19T17:22:58.354Z,82.85
2022-12-19T17:25:27.461Z,80.63
2022-12-19T17:27:55.969Z,84.88
2022-12-19T17:30:23.300Z,98.65
2022-12-19T17:32:53.189Z,95.03
2022-12-19T17:35:27.865Z,87.07
2022-12-19T17:37:56.849Z,86.78
2022-12-19T17:40:26.724Z,86.07
2022-12-19T17:42:54.665Z,94.18
2022-12-19T17:45:23.155Z,81.15
2022-12-19T17:47:51.591Z,95.18
2022-12-19T17:50:24.476Z,103.53
2022-12-19T17:52:51.550Z,108.15
2022-12-19T17:55:23.403Z,99.05
2022-12-19T17:57:50.894Z,99.30
2022-12-19T18:00:22.763Z,90.43
2022-12-19T18:02:54.977Z,97.40
2022-12-19T18:05:38.287Z,89.30
2022-12-19T18:08:23.246Z,64.20
2022-12-19T18:10:52.060Z,95.45
2022-12-19T18:13:20.470Z,102.93
2022-12-19T18:15:47.641Z,92.75
2022-12-19T18:18:16.501Z,85.70
2022-12-19T18:20:44.406Z,83.07
2022-12-19T18:23:17.603Z,90.90
2022-12-19T18:25:45.482Z,93.50
2022-12-19T18:28:13.059Z,83.75
2022-12-19T18:30:40.756Z,102.50
2022-12-19T18:33:08.342Z,88.55
2022-12-19T18:35:41.042Z,89.90
2022-12-19T18:38:13.313Z,90.28
2022-12-19T18:40:40.230Z,83.10
2022-12-19T18:43:07.181Z,89.88
2022-12-19T18:45:37.723Z,92.47
2022-12-19T18:48:07.953Z,95.78
2022-12-19T18:50:35.090Z,98.68
2022-12-19T18:53:02.242Z,98.63
2022-12-19T18:55:31.442Z,102.80
2022-12-19T18:57:58.380Z,94.82
2022-12-19T19:00:27.164Z,95.05
2022-12-19T19:03:04.059Z,101.32
2022-12-19T19:05:33.031Z,93.90
2022-12-19T19:08:13.175Z,90.03
2022-12-19T19:10:40.131Z,85.53
2022-12-19T19:13:12.371Z,90.03
2022-12-19T19:16:00.306Z,87.97
2022-12-19T19:18:34.217Z,82.50
2022-12-19T19:21:02.080Z,87.65
2022-12-19T19:23:39.346Z,85.78
2022-12-19T19:26:06.679Z,82.10
2022-12-19T19:28:33.613Z,77.30
2022-12-19T19:31:01.871Z,76.20
2022-12-19T19:33:35.410Z,80.47
2022-12-19T19:36:12.142Z,82.47
2022-12-19T19:38:42.377Z,80.35
2022-12-19T19:41:09.306Z,91.93
2022-12-19T19:43:36.481Z,86.72
2022-12-19T19:46:03.499Z,91.80
2022-12-19T19:48:31.025Z,90.68
2022-12-19T19:50:58.426Z,79.90
2022-12-19T19:53:25.739Z,86.43
2022-12-19T19:56:04.000Z,77.07
2022-12-19T19:58:32.062Z,83.82
2022-12-19T20:00:59.155Z,70.93
2022-12-19T20:03:26.697Z,76.07
2022-12-19T20:06:01.576Z,78.90
2022-12-19T20:08:33.652Z,81.50
2022-12-19T20:11:05.876Z,87.30
2022-12-19T20:13:34.315Z,83.10
2022-12-19T20:16:04.113Z,75.85
2022-12-19T20:18:31.177Z,80.45
2022-12-19T20:20:58.233Z,87.00
2022-12-19T20:23:26.205Z,82.07
2022-12-19T20:25:53.229Z,70.47
2022-12-19T20:28:21.421Z,77.03
2022-12-19T20:30:48.442Z,76.03
2022-12-19T20:33:15.858Z,76.20
2022-12-19T20:35:43.100Z,87.28
2022-12-19T20:38:10.398Z,92.93
2022-12-19T20:40:37.443Z,82.18
2022-12-19T20:43:04.351Z,78.82
2022-12-19T20:45:31.253Z,70.45
2022-12-19T20:47:58.247Z,73.40
2022-12-19T20:50:25.469Z,71.15
2022-12-19T20:52:52.415Z,70.60
2022-12-19T20:55:19.639Z,72.03
2022-12-19T20:57:46.552Z,77.47
2022-12-19T21:00:15.133Z,68.95
2022-12-19T21:03:25.109Z,71.93
2022-12-19T21:05:29.039Z,83.22
2022-12-19T21:07:55.936Z,96.43
2022-12-19T21:10:22.860Z,88.55
2022-12-19T21:12:49.760Z,79.10
2022-12-19T21:15:16.797Z,73.78
2022-12-19T21:17:43.875Z,81.00
2022-12-19T21:20:11.415Z,73.70
2022-12-19T21:22:38.437Z,75.35
2022-12-19T21:25:05.596Z,76.20
2022-12-19T21:27:32.592Z,86.72
2022-12-19T21:30:00.365Z,74.70
2022-12-19T21:32:27.879Z,75.63
2022-12-19T21:34:54.872Z,65.93
2022-12-19T21:37:24.187Z,73.28
2022-12-19T21:39:51.186Z,74.45
2022-12-19T21:42:18.136Z,74.65
2022-12-19T21:44:45.268Z,77.25
2022-12-19T21:47:12.294Z,75.03
2022-12-19T21:49:39.259Z,70.20
2022-12-19T21:52:06.175Z,80.00
2022-12-19T21:54:33.093Z,71.78
2022-12-19T21:57:00.160Z,68.68
2022-12-19T21:59:27.244Z,66.95
2022-12-19T22:01:54.387Z,74.85
2022-12-19T22:04:23.761Z,71.75
2022-12-19T22:06:51.460Z,72.75
2022-12-19T22:09:21.291Z,77.78
2022-12-19T22:11:48.699Z,76.85
2022-12-19T22:14:17.068Z,76.00
2022-12-19T22:16:44.499Z,62.65
2022-12-19T22:19:15.008Z,63.08
2022-12-19T22:21:42.375Z,65.97
2022-12-19T22:24:12.338Z,78.10
2022-12-19T22:26:39.923Z,69.03
2022-12-19T22:29:09.518Z,72.30
2022-12-19T22:31:38.030Z,78.90
2022-12-19T22:34:08.417Z,66.30
2022-12-19T22:36:36.702Z,71.97
2022-12-19T22:39:06.902Z,73.15
2022-12-19T22:41:35.368Z,67.05
2022-12-19T22:44:02.926Z,59.47
2022-12-19T22:46:32.904Z,59.28
2022-12-19T22:49:02.425Z,65.95
2022-12-19T22:51:30.606Z,64.50
2022-12-19T22:53:58.125Z,80.78
2022-12-19T22:56:28.056Z,64.00
2022-12-19T22:58:58.736Z,72.20
2022-12-19T23:01:29.030Z,67.32
2022-12-19T23:03:58.091Z,65.20
2022-12-19T23:06:27.029Z,58.47
2022-12-19T23:08:54.412Z,64.75
2022-12-19T23:11:24.437Z,82.63
2022-12-19T23:13:51.580Z,73.63
2022-12-19T23:16:18.771Z,72.55
2022-12-19T23:18:45.874Z,111.85
2022-12-19T23:21:18.848Z,78.45
2022-12-19T23:23:47.304Z,68.38
2022-12-19T23:26:24.091Z,66.78
2022-12-19T23:28:57.439Z,66.72
2022-12-19T23:31:25.009Z,67.10
2022-12-19T23:33:52.002Z,61.08
2022-12-19T23:36:38.188Z,68.05
2022-12-19T23:39:06.609Z,62.08
2022-12-19T23:41:33.552Z,62.53
2022-12-19T23:44:00.653Z,61.33
2022-12-19T23:46:28.498Z,65.20
2022-12-19T23:48:55.927Z,54.38
2022-12-19T23:51:25.492Z,52.22
2022-12-19T23:53:54.311Z,56.53
2022-12-19T23:56:31.895Z,54.20
2022-12-19T23:58:59.300Z,64.45
